Time;durP1;ratioP1;P1;durP2;ratioP2;P2;SDS_P1;SDS_P2;PMS_P1;PMS_P2;Temp;Humidity;BMP_temperature;BMP_pressure;BME280_temperature;BME280_humidity;BME280_pressure;Samples;Min_cycle;Max_cycle;Signal;HPM_P1;HPM_P2
2022/11/24 00:01:23;;;;;;;2.77;1.00;;;15.00;99.90;;;;;;5024343;28;20188;-76
2022/11/24 00:04:03;;;;;;;3.53;1.27;;;15.00;99.90;;;;;;5029309;28;20180;-77
2022/11/24 00:06:32;;;;;;;5.57;1.40;;;15.00;99.90;;;;;;5009900;28;20189;-77
2022/11/24 00:08:59;;;;;;;3.37;1.30;;;15.00;99.90;;;;;;5005208;28;20688;-77
2022/11/24 00:11:31;;;;;;;4.70;1.50;;;15.00;99.90;;;;;;5008934;28;20271;-78
2022/11/24 00:13:58;;;;;;;5.57;1.73;;;15.00;99.90;;;;;;5023746;28;20185;-78
2022/11/24 00:16:29;;;;;;;5.47;1.43;;;15.00;99.90;;;;;;5026773;28;20192;-78
2022/11/24 00:18:59;;;;;;;2.57;1.20;;;15.00;99.90;;;;;;5008150;28;20708;-78
2022/11/24 00:21:28;;;;;;;5.57;1.80;;;15.00;99.90;;;;;;5007966;28;20726;-77
2022/11/24 00:23:55;;;;;;;9.20;1.90;;;15.00;99.90;;;;;;5023423;28;20292;-77
2022/11/24 00:26:29;;;;;;;3.33;1.23;;;15.00;99.90;;;;;;5019831;28;20200;-78
2022/11/24 00:28:59;;;;;;;3.07;1.20;;;15.00;99.90;;;;;;5021184;28;20177;-77
2022/11/24 00:31:33;;;;;;;5.30;1.40;;;15.00;99.90;;;;;;4988005;28;20185;-77
2022/11/24 00:34:02;;;;;;;3.97;1.30;;;15.00;99.90;;;;;;5019243;28;20196;-77
2022/11/24 00:36:32;;;;;;;3.33;1.20;;;15.10;99.90;;;;;;5018433;28;20208;-78
2022/11/24 00:39:10;;;;;;;5.87;1.40;;;15.10;99.90;;;;;;5015711;28;20220;-77
2022/11/24 00:41:39;;;;;;;2.70;1.37;;;15.10;99.90;;;;;;5014706;28;20682;-77
2022/11/24 00:44:05;;;;;;;4.53;1.53;;;15.10;99.90;;;;;;4997530;28;20353;-77
2022/11/24 00:46:32;;;;;;;4.83;1.50;;;15.10;99.90;;;;;;5020837;28;20189;-78
2022/11/24 00:49:01;;;;;;;3.03;1.30;;;15.00;99.90;;;;;;5023134;28;20196;-78
2022/11/24 00:51:29;;;;;;;3.67;1.20;;;15.00;99.90;;;;;;4995959;28;20189;-77
2022/11/24 00:54:01;;;;;;;3.70;1.00;;;15.00;99.90;;;;;;5003580;28;20275;-77
2022/11/24 00:56:29;;;;;;;3.93;1.30;;;15.00;99.90;;;;;;5005785;28;20227;-78
2022/11/24 00:58:56;;;;;;;5.23;1.47;;;15.00;99.90;;;;;;5005702;28;20271;-77
2022/11/24 01:01:26;;;;;;;5.73;1.70;;;15.00;99.90;;;;;;5017091;28;20391;-76
2022/11/24 01:03:54;;;;;;;2.97;1.23;;;15.10;99.90;;;;;;5007855;28;20196;-76
2022/11/24 01:06:24;;;;;;;5.87;1.40;;;15.10;99.90;;;;;;5020142;28;20187;-76
2022/11/24 01:08:51;;;;;;;4.20;1.20;;;15.20;99.90;;;;;;5019150;28;20893;-76
2022/11/24 01:11:28;;;;;;;4.10;1.47;;;15.20;99.90;;;;;;4982496;28;20217;-76
2022/11/24 01:13:58;;;;;;;7.80;1.50;;;15.30;99.90;;;;;;5019413;28;20194;-76
2022/11/24 01:16:32;;;;;;;4.57;1.20;;;15.30;99.90;;;;;;4989928;28;20231;-76
2022/11/24 01:19:00;;;;;;;3.87;1.40;;;15.30;99.90;;;;;;5022204;28;20208;-76
2022/11/24 01:21:27;;;;;;;4.97;1.60;;;15.30;99.90;;;;;;4989744;28;20279;-76
2022/11/24 01:23:56;;;;;;;2.40;1.00;;;15.30;99.90;;;;;;5003039;28;20188;-76
2022/11/24 01:26:22;;;;;;;8.77;1.30;;;15.30;99.90;;;;;;4997741;28;20559;-76
2022/11/24 01:28:57;;;;;;;7.40;1.33;;;15.30;99.90;;;;;;4990752;28;20268;-76
2022/11/24 01:31:25;;;;;;;4.23;1.43;;;15.30;99.90;;;;;;4996589;28;20749;-74
2022/11/24 01:33:52;;;;;;;6.63;1.40;;;15.30;99.90;;;;;;4991922;28;20189;-76
2022/11/24 01:36:19;;;;;;;4.97;1.40;;;15.30;99.90;;;;;;5019272;28;20188;-76
2022/11/24 01:38:45;;;;;;;4.43;1.63;;;15.30;99.90;;;;;;5001725;28;20204;-76
2022/11/24 01:41:16;;;;;;;4.83;1.30;;;15.30;99.90;;;;;;4995752;28;20185;-76
2022/11/24 01:43:44;;;;;;;4.60;1.67;;;15.40;99.90;;;;;;5018530;28;20192;-76
2022/11/24 01:46:31;;;;;;;7.53;1.33;;;15.40;99.90;;;;;;5017604;28;20192;-76
2022/11/24 01:49:17;;;;;;;7.87;1.67;;;15.40;99.90;;;;;;5020891;28;20322;-76
2022/11/24 01:52:18;;;;;;;6.00;1.63;;;15.40;99.90;;;;;;5019623;28;20188;-76
2022/11/24 01:55:00;;;;;;;3.87;1.23;;;15.50;99.90;;;;;;4986947;28;21073;-76
2022/11/24 01:57:37;;;;;;;4.33;1.00;;;15.40;99.90;;;;;;4996919;28;20585;-74
2022/11/24 02:00:13;;;;;;;6.27;1.70;;;15.40;99.90;;;;;;5017902;28;20287;-76
2022/11/24 02:02:43;;;;;;;5.83;1.17;;;15.40;99.90;;;;;;4999462;28;20192;-76
2022/11/24 02:05:25;;;;;;;2.80;1.13;;;15.40;99.90;;;;;;5005574;28;20650;-76
2022/11/24 02:07:55;;;;;;;5.90;1.43;;;15.40;99.90;;;;;;5018669;28;20280;-74
2022/11/24 02:10:23;;;;;;;3.60;1.20;;;15.40;99.90;;;;;;5013429;28;20190;-75
2022/11/24 02:12:54;;;;;;;4.40;1.23;;;15.40;99.90;;;;;;5023810;28;20666;-76
2022/11/24 02:15:22;;;;;;;2.67;1.17;;;15.40;99.90;;;;;;5019681;28;20716;-76
2022/11/24 02:17:48;;;;;;;4.87;0.90;;;15.40;99.90;;;;;;5024546;28;20182;-76
2022/11/24 02:20:16;;;;;;;4.77;1.20;;;15.40;99.90;;;;;;5007473;28;20576;-76
2022/11/24 02:22:57;;;;;;;3.43;1.20;;;15.40;99.90;;;;;;5021735;28;20207;-76
2022/11/24 02:25:47;;;;;;;1.60;0.80;;;15.40;99.90;;;;;;5006809;28;20211;-76
2022/11/24 02:28:19;;;;;;;5.03;1.23;;;15.50;99.90;;;;;;5012860;28;20179;-76
2022/11/24 02:30:47;;;;;;;4.87;1.20;;;15.50;99.90;;;;;;4985052;28;20189;-77
2022/11/24 02:33:14;;;;;;;4.07;1.37;;;15.50;99.90;;;;;;4992471;28;20208;-77
2022/11/24 02:35:41;;;;;;;8.33;1.30;;;15.50;99.90;;;;;;5007321;28;20188;-76
2022/11/24 02:38:14;;;;;;;5.30;1.43;;;15.50;99.90;;;;;;5017779;28;20193;-76
2022/11/24 02:40:47;;;;;;;6.03;1.40;;;15.50;99.90;;;;;;5026450;28;20198;-76
2022/11/24 02:43:22;;;;;;;5.20;1.43;;;15.50;99.90;;;;;;5026155;28;20192;-76
2022/11/24 02:45:48;;;;;;;4.80;1.10;;;15.60;99.90;;;;;;5006066;28;20195;-76
2022/11/24 02:48:15;;;;;;;3.97;1.10;;;15.50;99.90;;;;;;5000891;28;20192;-76
2022/11/24 02:50:42;;;;;;;4.10;1.30;;;15.50;99.90;;;;;;5010343;28;20219;-76
2022/11/24 02:53:08;;;;;;;3.13;1.07;;;15.50;99.90;;;;;;5006329;28;20212;-76
2022/11/24 02:55:34;;;;;;;5.90;1.50;;;15.50;99.90;;;;;;5000992;28;20185;-76
2022/11/24 02:58:02;;;;;;;7.03;1.40;;;15.50;99.90;;;;;;5008079;28;20279;-77
2022/11/24 03:00:32;;;;;;;5.70;1.30;;;15.50;99.90;;;;;;5006919;28;20196;-75
2022/11/24 03:02:58;;;;;;;5.60;1.30;;;15.50;99.90;;;;;;5021834;28;20515;-76
2022/11/24 03:05:25;;;;;;;5.93;1.50;;;15.40;99.90;;;;;;5017359;28;20195;-76
2022/11/24 03:07:51;;;;;;;5.07;1.40;;;15.40;99.90;;;;;;5000431;28;20188;-76
2022/11/24 03:10:17;;;;;;;3.20;1.10;;;15.40;99.90;;;;;;4992354;28;20189;-76
2022/11/24 03:12:44;;;;;;;2.20;0.90;;;15.30;99.90;;;;;;4993846;28;20283;-76
2022/11/24 03:15:10;;;;;;;4.27;0.90;;;15.30;99.90;;;;;;5020283;28;20181;-75
2022/11/24 03:17:37;;;;;;;4.87;1.40;;;15.30;99.90;;;;;;5016383;28;20266;-76
2022/11/24 03:20:03;;;;;;;5.17;1.20;;;15.20;99.90;;;;;;4995265;28;20200;-76
2022/11/24 03:22:30;;;;;;;3.60;1.20;;;15.10;99.90;;;;;;5019459;28;20188;-76
2022/11/24 03:24:56;;;;;;;3.57;1.10;;;15.10;99.90;;;;;;5022484;28;20199;-75
2022/11/24 03:27:22;;;;;;;2.50;1.07;;;15.00;99.90;;;;;;5002509;28;20193;-76
2022/11/24 03:29:49;;;;;;;3.37;1.20;;;15.00;99.90;;;;;;5018762;28;20189;-75
2022/11/24 03:32:16;;;;;;;4.83;1.50;;;15.00;99.90;;;;;;5018077;28;20197;-76
2022/11/24 03:34:49;;;;;;;6.37;1.10;;;14.90;99.90;;;;;;5013688;28;20176;-75
2022/11/24 03:37:16;;;;;;;5.33;1.10;;;14.90;99.90;;;;;;5007462;28;20271;-76
2022/11/24 03:39:42;;;;;;;5.23;1.40;;;14.90;99.90;;;;;;5021451;28;20320;-75
2022/11/24 03:42:09;;;;;;;3.53;1.00;;;14.90;99.90;;;;;;5008705;28;20222;-76
2022/11/24 03:44:35;;;;;;;4.73;1.27;;;14.90;99.90;;;;;;5009816;28;20287;-75
2022/11/24 03:47:03;;;;;;;4.23;1.00;;;14.90;99.90;;;;;;5010087;28;20193;-75
2022/11/24 03:49:30;;;;;;;4.07;1.17;;;14.90;99.90;;;;;;5011654;28;20189;-76
2022/11/24 03:51:56;;;;;;;4.43;1.00;;;14.90;99.90;;;;;;5025283;28;20208;-76
2022/11/24 03:54:23;;;;;;;4.43;1.03;;;14.80;99.90;;;;;;4990273;28;20212;-76
2022/11/24 03:56:49;;;;;;;1.83;1.03;;;14.80;99.90;;;;;;5026286;28;20263;-76
2022/11/24 03:59:16;;;;;;;3.70;0.90;;;14.90;99.90;;;;;;4982226;28;20192;-75
2022/11/24 04:01:43;;;;;;;2.40;1.10;;;14.90;99.90;;;;;;5020844;28;20222;-75
2022/11/24 04:04:12;;;;;;;2.23;1.00;;;14.90;99.90;;;;;;5002564;28;20291;-76
2022/11/24 04:06:41;;;;;;;4.27;1.17;;;14.90;99.90;;;;;;5019136;28;20238;-76
2022/11/24 04:09:09;;;;;;;2.67;0.83;;;14.90;99.90;;;;;;5007401;28;20200;-76
2022/11/24 04:14:21;;;;;;;2.70;0.93;;;14.90;99.90;;;;;;5027761;28;20180;-76
2022/11/24 04:16:47;;;;;;;2.40;1.03;;;14.90;99.90;;;;;;5025738;28;20188;-76
2022/11/24 04:19:14;;;;;;;5.63;1.00;;;14.90;99.90;;;;;;5010422;28;20271;-75
2022/11/24 04:21:40;;;;;;;2.33;0.80;;;14.90;99.90;;;;;;5029105;28;20238;-76
2022/11/24 04:24:06;;;;;;;4.63;0.70;;;14.90;99.90;;;;;;5022854;28;20196;-76
2022/11/24 04:26:32;;;;;;;2.17;0.80;;;14.90;99.90;;;;;;5021748;28;20184;-75
2022/11/24 04:28:59;;;;;;;3.53;0.73;;;14.90;99.90;;;;;;5024921;28;20823;-76
2022/11/24 04:31:29;;;;;;;4.17;0.80;;;14.90;99.90;;;;;;5024557;28;20184;-76
2022/11/24 04:34:00;;;;;;;2.80;0.90;;;14.90;99.90;;;;;;5011661;28;20252;-75
2022/11/24 04:36:26;;;;;;;2.53;0.90;;;14.90;99.90;;;;;;5021331;28;20243;-76
2022/11/24 04:38:53;;;;;;;3.57;1.00;;;14.90;99.90;;;;;;4992825;28;20260;-75
2022/11/24 04:41:20;;;;;;;3.80;1.17;;;14.90;99.90;;;;;;5010277;28;20704;-76
2022/11/24 04:43:52;;;;;;;1.70;0.70;;;14.90;99.90;;;;;;5025739;28;20193;-76
2022/11/24 04:46:19;;;;;;;3.77;1.03;;;14.90;99.90;;;;;;4992321;28;20267;-76
2022/11/24 04:48:45;;;;;;;2.50;1.00;;;14.90;99.90;;;;;;5004182;28;20188;-76
2022/11/24 04:51:14;;;;;;;4.23;1.10;;;14.90;99.90;;;;;;5018467;28;20621;-75
2022/11/24 04:53:40;;;;;;;5.63;1.33;;;14.90;99.90;;;;;;5015535;28;20224;-76
2022/11/24 04:56:07;;;;;;;3.20;0.77;;;14.90;99.90;;;;;;5017840;28;20199;-76
2022/11/24 04:58:35;;;;;;;3.50;0.97;;;14.80;99.90;;;;;;5008791;28;20676;-76
2022/11/24 05:01:07;;;;;;;2.83;0.87;;;14.80;99.90;;;;;;5019681;28;20184;-76
2022/11/24 05:03:35;;;;;;;6.90;1.13;;;14.70;99.90;;;;;;5009262;28;20187;-76
2022/11/24 05:06:02;;;;;;;4.00;0.90;;;14.50;99.90;;;;;;5007400;28;20180;-76
2022/11/24 05:08:30;;;;;;;4.97;1.00;;;14.40;99.90;;;;;;4981732;28;20212;-76
2022/11/24 05:10:57;;;;;;;2.53;1.00;;;14.30;99.90;;;;;;5017794;28;20193;-76
2022/11/24 05:13:23;;;;;;;6.63;1.40;;;14.20;99.90;;;;;;4998849;28;20219;-76
2022/11/24 05:15:49;;;;;;;1.53;0.80;;;14.20;99.90;;;;;;5020591;28;20176;-76
2022/11/24 05:18:15;;;;;;;3.07;0.90;;;14.10;99.90;;;;;;5016587;28;20188;-76
2022/11/24 05:20:46;;;;;;;6.00;1.23;;;14.10;99.90;;;;;;4989829;28;20274;-76
2022/11/24 05:23:13;;;;;;;6.47;1.20;;;14.10;99.90;;;;;;5016435;28;20214;-76
2022/11/24 05:25:41;;;;;;;2.27;1.00;;;14.10;99.90;;;;;;5019733;28;20770;-76
2022/11/24 05:28:12;;;;;;;7.53;1.40;;;14.10;99.90;;;;;;4997305;28;20193;-76
2022/11/24 05:30:42;;;;;;;3.30;1.00;;;14.10;99.90;;;;;;5000500;28;20669;-76
2022/11/24 05:33:17;;;;;;;5.33;1.10;;;14.00;99.90;;;;;;5003130;28;20716;-76
2022/11/24 05:35:48;;;;;;;3.70;1.17;;;14.00;99.90;;;;;;5015792;28;20287;-76
2022/11/24 05:38:16;;;;;;;3.00;0.87;;;14.00;99.90;;;;;;4997517;28;20184;-76
2022/11/24 05:40:43;;;;;;;4.53;1.60;;;13.90;99.90;;;;;;4997023;28;20250;-76
2022/11/24 05:43:12;;;;;;;4.43;1.40;;;13.90;99.90;;;;;;5015140;28;20292;-77
2022/11/24 05:45:39;;;;;;;4.47;1.30;;;13.90;99.90;;;;;;5015124;28;20774;-76
2022/11/24 05:48:08;;;;;;;4.90;1.20;;;14.00;99.90;;;;;;5002825;28;20196;-76
2022/11/24 05:50:35;;;;;;;3.50;1.30;;;14.00;99.90;;;;;;4987215;28;20179;-76
2022/11/24 05:53:05;;;;;;;3.33;1.30;;;14.00;99.90;;;;;;5003829;28;20278;-76
2022/11/24 05:55:31;;;;;;;1.53;1.00;;;14.00;99.90;;;;;;5021811;28;20185;-76
2022/11/24 05:58:07;;;;;;;2.80;1.30;;;13.90;99.90;;;;;;5023035;28;20187;-75
2022/11/24 06:00:37;;;;;;;4.63;1.70;;;13.80;99.90;;;;;;5005999;28;20180;-76
2022/11/24 06:03:04;;;;;;;4.37;1.50;;;13.80;99.90;;;;;;5000853;28;20196;-76
2022/11/24 06:05:34;;;;;;;3.47;1.40;;;13.70;99.90;;;;;;5006562;28;20195;-76
2022/11/24 06:08:01;;;;;;;5.17;1.40;;;13.70;99.90;;;;;;5014247;28;20218;-76
2022/11/24 06:10:27;;;;;;;4.37;1.40;;;13.70;99.90;;;;;;4999809;28;20195;-76
2022/11/24 06:12:53;;;;;;;7.23;1.30;;;13.70;99.90;;;;;;5010798;28;20212;-76
2022/11/24 06:15:21;;;;;;;6.93;1.60;;;13.80;99.90;;;;;;4989459;28;20775;-76
2022/11/24 06:17:55;;;;;;;8.07;1.93;;;13.70;99.90;;;;;;5015241;28;20238;-76
2022/11/24 06:20:22;;;;;;;6.00;1.33;;;13.70;99.90;;;;;;5012635;28;20196;-76
2022/11/24 06:22:49;;;;;;;5.73;1.30;;;13.70;99.90;;;;;;4999688;28;20185;-76
2022/11/24 06:25:16;;;;;;;4.27;1.50;;;13.80;99.90;;;;;;5001162;28;20282;-76
2022/11/24 06:27:44;;;;;;;4.07;1.30;;;13.70;99.90;;;;;;4999926;28;20421;-76
2022/11/24 06:30:11;;;;;;;2.57;1.10;;;13.80;99.90;;;;;;5002276;28;20705;-76
2022/11/24 06:32:38;;;;;;;4.07;1.33;;;13.80;99.90;;;;;;5018317;28;20229;-76
2022/11/24 06:35:05;;;;;;;2.37;0.90;;;13.80;99.90;;;;;;5017194;28;20183;-76
2022/11/24 06:37:36;;;;;;;2.47;0.97;;;13.80;99.90;;;;;;5017907;28;20188;-76
2022/11/24 06:40:03;;;;;;;2.17;0.97;;;13.80;99.90;;;;;;5000625;28;20701;-76
2022/11/24 06:42:30;;;;;;;2.13;1.37;;;13.80;99.90;;;;;;5005229;28;20262;-76
2022/11/24 06:44:56;;;;;;;4.53;1.20;;;13.80;99.90;;;;;;5018033;28;20210;-76
2022/11/24 06:47:22;;;;;;;2.47;1.10;;;13.80;99.90;;;;;;5019011;28;20353;-76
2022/11/24 06:49:48;;;;;;;4.27;1.50;;;13.80;99.90;;;;;;5001985;28;20230;-76
2022/11/24 06:52:15;;;;;;;3.43;1.43;;;13.80;99.90;;;;;;5011257;28;21335;-76
2022/11/24 06:54:42;;;;;;;2.80;1.27;;;13.70;99.90;;;;;;5019637;28;20235;-76
2022/11/24 06:57:08;;;;;;;2.37;1.20;;;13.70;99.90;;;;;;4995008;28;20181;-76
2022/11/24 06:59:35;;;;;;;4.40;1.53;;;13.80;99.90;;;;;;5014265;28;20242;-76
2022/11/24 07:02:02;;;;;;;3.33;1.33;;;13.80;99.90;;;;;;5022153;28;20196;-76
2022/11/24 07:04:29;;;;;;;3.00;1.10;;;13.80;99.90;;;;;;4996608;28;20224;-76
2022/11/24 07:06:56;;;;;;;6.33;1.43;;;13.90;99.90;;;;;;5002907;28;20589;-76
2022/11/24 07:09:22;;;;;;;4.17;1.60;;;14.00;99.90;;;;;;5015364;28;20224;-76
2022/11/24 07:11:48;;;;;;;4.63;1.40;;;14.10;99.90;;;;;;5002415;28;20196;-76
2022/11/24 07:14:18;;;;;;;3.23;1.83;;;14.20;99.90;;;;;;5006362;28;20647;-76
2022/11/24 07:16:45;;;;;;;6.87;1.97;;;14.30;99.90;;;;;;4998228;28;20275;-76
2022/11/24 07:19:12;;;;;;;5.73;1.60;;;14.40;99.90;;;;;;5017691;28;20185;-76
2022/11/24 07:21:38;;;;;;;3.17;1.53;;;14.50;99.90;;;;;;4991002;28;20184;-76
2022/11/24 07:24:06;;;;;;;5.60;1.60;;;14.50;99.90;;;;;;4987283;28;20273;-76
2022/11/24 07:26:36;;;;;;;7.27;1.30;;;14.50;99.90;;;;;;5003504;28;20184;-76
2022/11/24 07:29:04;;;;;;;4.37;1.77;;;14.40;99.90;;;;;;4997636;28;20431;-76
2022/11/24 07:31:31;;;;;;;4.07;1.60;;;14.40;99.90;;;;;;5021514;28;20546;-76
2022/11/24 07:33:58;;;;;;;4.33;1.37;;;14.30;99.90;;;;;;5019778;28;20247;-76
2022/11/24 07:36:25;;;;;;;5.53;1.57;;;14.30;99.90;;;;;;5005472;28;20181;-76
2022/11/24 07:38:57;;;;;;;4.23;1.27;;;14.30;99.90;;;;;;5007039;28;20251;-76
2022/11/24 07:41:24;;;;;;;5.23;1.30;;;14.30;99.90;;;;;;4983392;28;20207;-76
2022/11/24 07:43:50;;;;;;;6.57;1.60;;;14.20;99.90;;;;;;5004313;28;20822;-76
2022/11/24 07:46:19;;;;;;;6.87;1.77;;;14.20;99.90;;;;;;5017702;28;20911;-77
2022/11/24 07:48:46;;;;;;;6.53;1.60;;;14.30;99.90;;;;;;5015121;28;20670;-76
2022/11/24 07:51:16;;;;;;;4.90;1.57;;;14.30;99.90;;;;;;5016525;28;20220;-76
2022/11/24 07:53:44;;;;;;;5.30;1.70;;;14.30;99.90;;;;;;5018255;28;20212;-76
2022/11/24 07:56:11;;;;;;;6.53;1.80;;;14.30;99.90;;;;;;5010246;28;20675;-76
2022/11/24 07:58:38;;;;;;;3.33;1.70;;;14.30;99.90;;;;;;5015653;28;20593;-76
2022/11/24 08:01:13;;;;;;;4.87;1.80;;;14.30;99.90;;;;;;5000263;28;20231;-76
2022/11/24 08:03:41;;;;;;;4.20;1.70;;;14.30;99.90;;;;;;5000824;28;20216;-77
2022/11/24 08:06:09;;;;;;;6.20;2.00;;;14.30;99.90;;;;;;4999268;28;20203;-76
2022/11/24 08:08:35;;;;;;;7.13;1.87;;;14.30;99.90;;;;;;5020044;28;20820;-76
2022/11/24 08:11:15;;;;;;;6.63;1.90;;;14.30;99.90;;;;;;5020204;28;20188;-76
2022/11/24 08:13:42;;;;;;;4.97;1.67;;;14.40;99.90;;;;;;5020223;28;20223;-76
2022/11/24 08:16:15;;;;;;;5.60;2.10;;;14.40;99.90;;;;;;5001501;28;20192;-76
2022/11/24 08:18:50;;;;;;;4.63;1.53;;;14.40;99.90;;;;;;4990654;28;20199;-76
2022/11/24 08:21:22;;;;;;;3.10;2.10;;;14.50;99.90;;;;;;4997931;28;20276;-77
2022/11/24 08:23:48;;;;;;;9.47;2.13;;;14.50;99.90;;;;;;5012517;28;20196;-76
2022/11/24 08:26:18;;;;;;;6.23;1.77;;;14.60;99.90;;;;;;5026439;28;20197;-77
2022/11/24 08:28:46;;;;;;;4.83;2.33;;;14.60;99.90;;;;;;5008852;28;20194;-77
2022/11/24 08:31:17;;;;;;;6.90;1.80;;;14.60;99.90;;;;;;5002704;28;20193;-76
2022/11/24 08:33:43;;;;;;;6.93;1.60;;;14.60;99.90;;;;;;4996213;28;20866;-76
2022/11/24 08:36:15;;;;;;;5.37;1.50;;;14.60;99.90;;;;;;4997195;28;21047;-76
2022/11/24 08:38:43;;;;;;;6.07;1.90;;;14.70;99.90;;;;;;5021190;28;20183;-77
2022/11/24 08:41:14;;;;;;;4.60;1.80;;;14.80;99.90;;;;;;4998996;28;20674;-77
2022/11/24 08:43:41;;;;;;;5.30;1.90;;;14.90;99.90;;;;;;4999180;28;20231;-76
2022/11/24 08:46:11;;;;;;;2.90;1.57;;;14.90;99.90;;;;;;5001948;28;20806;-77
2022/11/24 08:48:38;;;;;;;4.93;1.90;;;14.90;99.90;;;;;;5027727;28;20219;-77
2022/11/24 08:51:15;;;;;;;9.97;2.27;;;14.90;99.90;;;;;;5008213;28;20199;-76
2022/11/24 08:53:45;;;;;;;8.13;1.73;;;15.00;99.90;;;;;;5013176;28;20899;-76
2022/11/24 08:56:17;;;;;;;10.20;2.10;;;15.00;99.90;;;;;;5022073;28;20661;-76
2022/11/24 08:58:45;;;;;;;6.87;1.90;;;15.10;99.90;;;;;;5000995;28;20700;-76
2022/11/24 09:01:15;;;;;;;7.10;1.87;;;15.10;99.90;;;;;;5018976;28;20257;-76
2022/11/24 09:03:46;;;;;;;5.20;1.73;;;15.10;99.90;;;;;;4996947;28;20235;-77
2022/11/24 09:06:14;;;;;;;9.40;2.00;;;15.10;99.90;;;;;;5020003;28;20189;-76
2022/11/24 09:08:41;;;;;;;10.57;1.70;;;15.20;99.90;;;;;;5016387;28;20197;-76
2022/11/24 09:11:12;;;;;;;8.03;1.50;;;15.20;99.90;;;;;;5014661;28;20282;-76
2022/11/24 09:13:39;;;;;;;7.87;1.53;;;15.10;99.90;;;;;;5009628;28;20231;-76
2022/11/24 09:16:19;;;;;;;5.63;1.40;;;15.20;99.90;;;;;;5017411;28;20189;-77
2022/11/24 09:18:46;;;;;;;5.47;1.40;;;15.20;99.90;;;;;;4997111;28;20192;-76
2022/11/24 09:21:19;;;;;;;7.33;1.70;;;15.40;99.90;;;;;;5004859;28;20630;-76
2022/11/24 09:23:49;;;;;;;5.73;1.20;;;15.50;99.90;;;;;;4998330;28;20215;-76
2022/11/24 09:26:24;;;;;;;5.63;1.63;;;15.60;99.90;;;;;;4999325;28;20200;-77
2022/11/24 09:28:53;;;;;;;8.07;1.80;;;15.60;99.90;;;;;;4981210;28;20283;-76
2022/11/24 09:31:23;;;;;;;6.23;1.77;;;15.60;99.90;;;;;;5012146;28;20188;-76
2022/11/24 09:33:51;;;;;;;8.63;2.17;;;15.60;99.90;;;;;;5017830;28;20591;-76
2022/11/24 09:36:18;;;;;;;8.67;1.80;;;15.60;99.90;;;;;;5015091;28;20215;-76
2022/11/24 09:38:45;;;;;;;10.10;2.00;;;15.60;99.90;;;;;;5004469;28;20196;-76
2022/11/24 09:41:26;;;;;;;11.30;2.40;;;15.70;99.90;;;;;;5008113;28;20192;-77
2022/11/24 09:44:02;;;;;;;16.47;2.23;;;15.70;99.90;;;;;;5020655;28;20202;-74
2022/11/24 09:47:15;;;;;;;16.07;2.93;;;15.70;99.90;;;;;;4996039;28;21143;-76
2022/11/24 09:50:20;;;;;;;10.60;2.07;;;15.70;99.90;;;;;;5002777;28;20192;-75
2022/11/24 09:53:00;;;;;;;11.10;2.03;;;15.80;99.90;;;;;;5009114;28;20223;-76
2022/11/24 09:55:44;;;;;;;10.33;2.00;;;15.90;99.90;;;;;;4982360;28;20207;-77
2022/11/24 09:58:43;;;;;;;14.57;2.47;;;15.90;99.90;;;;;;5003241;28;20381;-76
2022/11/24 10:01:21;;;;;;;18.13;2.43;;;16.00;99.90;;;;;;4984324;28;20189;-77
2022/11/24 10:03:51;;;;;;;16.87;3.00;;;16.10;99.90;;;;;;5020190;28;20219;-75
2022/11/24 10:06:33;;;;;;;20.80;2.63;;;16.10;99.90;;;;;;4995589;28;20204;-77
2022/11/24 10:09:23;;;;;;;9.37;2.20;;;16.00;99.90;;;;;;5016724;28;20204;-77
2022/11/24 10:12:14;;;;;;;12.30;3.00;;;15.90;99.90;;;;;;4997653;28;20273;-77
2022/11/24 10:15:03;;;;;;;15.90;2.10;;;15.80;99.90;;;;;;5010135;28;20189;-77
2022/11/24 10:17:51;;;;;;;8.07;2.07;;;15.80;99.90;;;;;;4999110;28;20204;-76
2022/11/24 10:20:47;;;;;;;12.87;2.30;;;15.80;99.90;;;;;;4997294;28;20199;-77
2022/11/24 10:23:59;;;;;;;16.30;2.60;;;15.80;99.90;;;;;;4969262;28;20555;-76
2022/11/24 10:27:22;;;;;;;10.17;2.20;;;15.80;99.90;;;;;;4975411;28;20212;-77
2022/11/24 10:29:52;;;;;;;9.73;2.27;;;15.70;99.90;;;;;;4991085;28;20215;-77
2022/11/24 10:32:41;;;;;;;15.03;2.60;;;15.70;99.90;;;;;;5018690;28;20255;-77
2022/11/24 10:35:32;;;;;;;16.67;3.17;;;15.60;99.90;;;;;;5010745;28;20199;-76
2022/11/24 10:38:20;;;;;;;18.73;3.00;;;15.60;99.90;;;;;;4998683;28;20184;-77
2022/11/24 10:40:57;;;;;;;15.83;2.73;;;15.50;99.90;;;;;;4986232;28;20188;-77
2022/11/24 10:43:31;;;;;;;20.20;2.90;;;15.50;99.90;;;;;;4983802;28;20278;-76
2022/11/24 10:46:27;;;;;;;16.27;2.83;;;15.50;99.90;;;;;;5015039;28;20704;-76
2022/11/24 10:49:02;;;;;;;13.53;2.30;;;15.40;99.90;;;;;;5015537;28;20226;-76
2022/11/24 10:51:58;;;;;;;19.00;3.10;;;15.50;99.90;;;;;;5022917;28;20326;-76
2022/11/24 10:54:25;;;;;;;20.10;2.83;;;15.50;99.90;;;;;;4988493;28;20194;-77
2022/11/24 10:56:55;;;;;;;22.27;3.20;;;15.50;99.90;;;;;;4998482;28;20874;-76
2022/11/24 11:00:00;;;;;;;19.27;3.30;;;15.50;99.90;;;;;;5020967;28;20196;-76
2022/11/24 11:02:38;;;;;;;21.77;3.13;;;15.40;99.90;;;;;;5019524;28;20195;-76
2022/11/24 11:05:32;;;;;;;21.83;3.43;;;15.30;99.90;;;;;;5006021;28;20862;-76
2022/11/24 11:08:22;;;;;;;31.33;3.97;;;15.10;99.90;;;;;;5008014;28;20196;-76
2022/11/24 11:11:20;;;;;;;21.03;3.23;;;15.00;99.90;;;;;;5003707;28;20539;-76
2022/11/24 11:13:56;;;;;;;21.73;3.70;;;15.00;99.90;;;;;;4993962;28;20290;-76
2022/11/24 11:16:29;;;;;;;24.53;4.10;;;14.90;99.90;;;;;;4995659;28;20200;-76
2022/11/24 11:18:56;;;;;;;27.27;4.00;;;14.80;99.90;;;;;;5004976;28;20184;-76
2022/11/24 11:21:45;;;;;;;26.23;3.73;;;14.90;99.90;;;;;;5004806;28;20184;-76
2022/11/24 11:24:20;;;;;;;15.97;3.10;;;14.90;99.90;;;;;;5001533;28;20199;-76
2022/11/24 11:26:46;;;;;;;26.87;4.23;;;14.90;99.90;;;;;;4981883;28;20196;-76
2022/11/24 11:29:22;;;;;;;12.53;2.50;;;14.90;99.90;;;;;;5018205;28;20316;-76
2022/11/24 11:32:20;;;;;;;19.17;3.40;;;14.90;99.90;;;;;;4985296;28;20294;-77
2022/11/24 11:34:50;;;;;;;31.97;4.53;;;14.90;99.90;;;;;;5015209;28;20374;-76
2022/11/24 11:37:18;;;;;;;20.67;3.33;;;15.00;99.90;;;;;;5002626;28;20504;-76
2022/11/24 11:39:52;;;;;;;25.40;3.17;;;15.10;99.90;;;;;;4996684;28;20198;-77
2022/11/24 11:42:34;;;;;;;19.97;3.23;;;15.10;99.90;;;;;;5011755;28;20198;-76
2022/11/24 11:45:16;;;;;;;21.17;3.87;;;15.30;99.90;;;;;;4981778;28;20222;-76
2022/11/24 11:47:53;;;;;;;16.40;3.17;;;15.30;99.90;;;;;;5012012;28;20218;-77
2022/11/24 11:50:56;;;;;;;15.83;2.57;;;15.20;99.90;;;;;;4993125;28;20199;-77
2022/11/24 11:53:28;;;;;;;18.00;2.33;;;15.20;99.90;;;;;;4956135;28;20259;-77
2022/11/24 11:56:16;;;;;;;15.23;2.50;;;15.20;99.90;;;;;;5015932;28;20192;-76
2022/11/24 11:59:27;;;;;;;20.70;3.73;;;15.10;99.90;;;;;;5012651;28;20207;-77
2022/11/24 12:02:50;;;;;;;19.93;2.77;;;14.90;99.90;;;;;;5007534;28;20309;-77
2022/11/24 12:05:35;;;;;;;20.77;2.93;;;14.90;99.90;;;;;;4940914;28;20321;-77
2022/11/24 12:08:19;;;;;;;12.30;2.93;;;14.90;99.90;;;;;;5006760;28;20216;-76
2022/11/24 12:11:34;;;;;;;34.47;3.30;;;14.80;99.90;;;;;;5012963;28;20703;-77
2022/11/24 12:14:50;;;;;;;26.67;3.10;;;14.70;99.90;;;;;;4969056;28;20832;-76
2022/11/24 12:17:46;;;;;;;19.97;2.90;;;14.70;99.90;;;;;;4995936;28;20176;-77
2022/11/24 12:20:54;;;;;;;15.70;2.57;;;14.80;99.90;;;;;;4995748;28;20250;-77
2022/11/24 12:23:45;;;;;;;19.00;3.10;;;14.80;99.90;;;;;;5011731;28;20195;-77
2022/11/24 12:26:32;;;;;;;19.93;2.43;;;15.00;99.90;;;;;;5015763;28;20250;-77
2022/11/24 12:29:52;;;;;;;25.10;3.70;;;15.10;99.90;;;;;;4984579;28;20188;-77
2022/11/24 12:33:08;;;;;;;9.57;2.73;;;15.10;99.90;;;;;;4985373;28;20216;-77
2022/11/24 12:36:03;;;;;;;16.90;2.60;;;15.10;99.90;;;;;;4996725;28;20197;-76
2022/11/24 12:38:50;;;;;;;14.33;2.70;;;15.10;99.90;;;;;;5001400;28;20280;-77
2022/11/24 12:41:58;;;;;;;17.00;2.30;;;15.00;99.90;;;;;;5005704;28;20265;-76
2022/11/24 12:45:06;;;;;;;16.50;2.60;;;15.00;99.90;;;;;;5014288;28;20219;-76
2022/11/24 12:47:57;;;;;;;21.03;3.03;;;15.10;99.90;;;;;;5000220;28;20215;-76
2022/11/24 12:50:31;;;;;;;13.40;2.97;;;15.20;99.90;;;;;;5012819;28;20203;-76
2022/11/24 12:53:27;;;;;;;14.63;2.53;;;15.20;99.90;;;;;;5010029;28;20324;-77
2022/11/24 12:56:06;;;;;;;22.30;3.43;;;15.30;99.90;;;;;;4983416;28;20231;-77
2022/11/24 12:59:36;;;;;;;12.43;2.23;;;15.30;99.90;;;;;;4995176;28;20193;-76
2022/11/24 13:02:51;;;;;;;14.60;2.60;;;15.30;99.90;;;;;;4992955;28;20691;-77
2022/11/24 13:05:45;;;;;;;24.93;3.43;;;15.30;99.90;;;;;;4997595;28;20196;-76
2022/11/24 13:08:14;;;;;;;25.00;4.03;;;15.10;99.90;;;;;;4983360;28;20208;-76
2022/11/24 13:10:41;;;;;;;18.27;3.10;;;15.10;99.90;;;;;;5019172;28;20196;-77
2022/11/24 13:13:11;;;;;;;17.13;2.87;;;15.00;99.90;;;;;;5003445;28;20216;-76
2022/11/24 13:16:14;;;;;;;25.27;3.50;;;14.90;99.90;;;;;;5012721;28;20390;-76
2022/11/24 13:18:41;;;;;;;16.10;2.90;;;14.80;99.90;;;;;;5000336;28;20684;-77
2022/11/24 13:21:46;;;;;;;21.43;3.77;;;14.60;99.90;;;;;;5000228;28;20577;-76